Time;durP1;ratioP1;P1;durP2;ratioP2;P2;SDS_P1;SDS_P2;PMS_P1;PMS_P2;Temp;Humidity;BMP_temperature;BMP_pressure;BME280_temperature;BME280_humidity;BME280_pressure;Samples;Min_cycle;Max_cycle;Signal;HPM_P1;HPM_P2
2023/05/23 00:02:08;;;;;;;48.57;24.00;;;;;;;;;;5048320;28;20048;-63
2023/05/23 00:04:35;;;;;;;49.00;26.13;;;;;;;;;;5048554;28;20037;-63
2023/05/23 00:07:02;;;;;;;48.97;27.30;;;;;;;;;;5048180;28;20500;-63
2023/05/23 00:09:28;;;;;;;52.20;26.97;;;;;;;;;;5048202;28;20055;-63
2023/05/23 00:11:54;;;;;;;50.30;26.10;;;;;;;;;;5040255;28;20042;-63
2023/05/23 00:14:20;;;;;;;47.93;25.53;;;;;;;;;;5028758;28;20405;-63
2023/05/23 00:16:48;;;;;;;44.27;24.80;;;;;;;;;;5027958;28;20168;-63
2023/05/23 00:19:14;;;;;;;53.27;27.17;;;;;;;;;;5028586;28;20050;-63
2023/05/23 00:21:42;;;;;;;54.50;25.63;;;;;;;;;;5028472;28;20041;-63
2023/05/23 00:24:09;;;;;;;46.57;24.03;;;;;;;;;;5043004;28;20090;-63
2023/05/23 00:26:35;;;;;;;44.93;24.50;;;;;;;;;;5047976;28;20182;-62
2023/05/23 00:29:01;;;;;;;49.23;27.23;;;;;;;;;;5048371;28;20088;-63
2023/05/23 00:31:27;;;;;;;52.77;25.50;;;;;;;;;;5047865;28;20049;-63
2023/05/23 00:33:54;;;;;;;54.37;26.20;;;;;;;;;;5047172;28;20106;-63
2023/05/23 00:36:21;;;;;;;49.93;26.43;;;;;;;;;;5047180;28;20045;-63
2023/05/23 00:38:48;;;;;;;56.10;27.03;;;;;;;;;;5048016;28;20049;-63
2023/05/23 00:41:14;;;;;;;59.23;29.63;;;;;;;;;;5050234;28;20090;-63
2023/05/23 00:43:40;;;;;;;61.20;27.50;;;;;;;;;;5052445;28;20083;-64
2023/05/23 00:46:07;;;;;;;54.67;25.17;;;;;;;;;;5052159;28;20098;-63
2023/05/23 00:48:33;;;;;;;69.77;29.50;;;;;;;;;;5052106;28;20110;-63
2023/05/23 00:50:59;;;;;;;63.80;28.67;;;;;;;;;;5052339;28;20127;-63
2023/05/23 00:53:26;;;;;;;56.83;27.33;;;;;;;;;;5034084;28;20371;-63
2023/05/23 00:55:52;;;;;;;63.77;27.70;;;;;;;;;;5032246;28;20423;-63
2023/05/23 00:58:18;;;;;;;68.07;29.70;;;;;;;;;;5032232;28;20128;-64
2023/05/23 01:00:44;;;;;;;63.93;28.93;;;;;;;;;;5036031;28;20091;-63
2023/05/23 01:03:16;;;;;;;66.17;28.20;;;;;;;;;;5043329;28;20567;-63
2023/05/23 01:05:43;;;;;;;61.00;27.67;;;;;;;;;;5049524;28;20052;-63
2023/05/23 01:08:09;;;;;;;61.80;26.83;;;;;;;;;;5052002;28;20052;-64
2023/05/23 01:10:35;;;;;;;61.43;26.10;;;;;;;;;;5036768;28;20088;-64
2023/05/23 01:13:10;;;;;;;63.33;26.90;;;;;;;;;;5031621;28;20060;-63
2023/05/23 01:15:48;;;;;;;49.97;23.70;;;;;;;;;;5030016;28;20336;-63
2023/05/23 01:18:16;;;;;;;51.73;25.50;;;;;;;;;;5031829;28;20049;-63
2023/05/23 01:20:55;;;;;;;39.47;21.07;;;;;;;;;;5033999;28;20132;-63
2023/05/23 01:23:31;;;;;;;57.17;24.20;;;;;;;;;;5051447;28;20053;-63
2023/05/23 01:26:03;;;;;;;34.03;19.60;;;;;;;;;;5048488;28;20049;-63
2023/05/23 01:28:31;;;;;;;42.20;19.87;;;;;;;;;;5031484;28;20128;-63
2023/05/23 01:30:58;;;;;;;37.53;21.33;;;;;;;;;;5031841;28;20056;-63
2023/05/23 01:33:25;;;;;;;44.50;21.13;;;;;;;;;;5031515;28;20131;-62
2023/05/23 01:35:51;;;;;;;48.37;24.00;;;;;;;;;;5031338;28;20045;-63
2023/05/23 01:38:17;;;;;;;44.30;24.33;;;;;;;;;;5031466;28;20191;-63
2023/05/23 01:40:43;;;;;;;40.60;23.60;;;;;;;;;;5031293;28;20428;-63
2023/05/23 01:43:10;;;;;;;45.40;24.63;;;;;;;;;;5031533;28;20053;-63
2023/05/23 01:45:36;;;;;;;40.43;22.80;;;;;;;;;;5049101;28;20041;-63
2023/05/23 01:48:03;;;;;;;47.30;24.50;;;;;;;;;;5050984;28;20075;-63
2023/05/23 01:50:29;;;;;;;48.73;23.70;;;;;;;;;;5051455;28;20193;-63
2023/05/23 01:52:56;;;;;;;48.23;23.83;;;;;;;;;;5050149;28;20076;-63
2023/05/23 01:55:23;;;;;;;43.50;22.23;;;;;;;;;;5050477;28;20041;-63
2023/05/23 01:57:50;;;;;;;34.03;20.50;;;;;;;;;;5051000;28;20098;-63
2023/05/23 02:00:16;;;;;;;42.20;23.30;;;;;;;;;;5051040;28;20073;-63
2023/05/23 02:02:42;;;;;;;43.23;22.83;;;;;;;;;;5051251;28;20573;-63
2023/05/23 02:05:11;;;;;;;45.60;20.33;;;;;;;;;;5050132;28;20041;-63
2023/05/23 02:07:38;;;;;;;45.33;22.33;;;;;;;;;;5050503;28;20664;-63
2023/05/23 02:10:04;;;;;;;43.60;22.60;;;;;;;;;;5050831;28;20041;-63
2023/05/23 02:12:30;;;;;;;38.57;20.30;;;;;;;;;;5050537;28;20071;-63
2023/05/23 02:14:56;;;;;;;46.97;20.70;;;;;;;;;;5049571;28;20067;-63
2023/05/23 02:17:23;;;;;;;46.33;20.73;;;;;;;;;;5050760;28;20040;-63
2023/05/23 02:19:49;;;;;;;39.20;17.90;;;;;;;;;;5050485;28;20072;-64
2023/05/23 02:22:15;;;;;;;46.97;21.20;;;;;;;;;;5050396;28;20056;-63
2023/05/23 02:24:41;;;;;;;49.50;19.27;;;;;;;;;;5049830;28;20556;-62
2023/05/23 02:27:07;;;;;;;42.57;19.03;;;;;;;;;;5045938;28;20045;-63
2023/05/23 02:29:34;;;;;;;49.23;19.63;;;;;;;;;;5049783;28;20045;-64
2023/05/23 02:32:00;;;;;;;41.27;18.43;;;;;;;;;;5050244;28;20057;-64
2023/05/23 02:34:26;;;;;;;47.57;18.93;;;;;;;;;;5050303;28;20443;-63
2023/05/23 02:36:52;;;;;;;48.37;20.20;;;;;;;;;;5049793;28;20563;-63
2023/05/23 02:39:18;;;;;;;41.00;18.03;;;;;;;;;;5048202;28;20037;-63
2023/05/23 02:41:44;;;;;;;54.90;20.63;;;;;;;;;;5032019;28;20052;-63
2023/05/23 02:44:10;;;;;;;44.83;18.90;;;;;;;;;;5030423;28;20045;-63
2023/05/23 02:46:36;;;;;;;48.23;19.80;;;;;;;;;;5028671;28;20045;-62
2023/05/23 02:49:02;;;;;;;44.27;17.83;;;;;;;;;;5034768;28;20539;-62
2023/05/23 02:51:31;;;;;;;46.63;20.57;;;;;;;;;;5049256;28;20051;-62
2023/05/23 02:53:57;;;;;;;48.17;18.80;;;;;;;;;;5035404;28;20104;-62
2023/05/23 02:56:23;;;;;;;51.77;20.10;;;;;;;;;;5030099;28;20111;-63
2023/05/23 02:58:49;;;;;;;34.30;18.60;;;;;;;;;;5030187;28;20132;-62
2023/05/23 03:01:16;;;;;;;47.43;19.20;;;;;;;;;;5029141;28;20654;-62
2023/05/23 03:03:42;;;;;;;43.47;17.63;;;;;;;;;;5030067;28;20084;-63
2023/05/23 03:06:15;;;;;;;46.73;18.77;;;;;;;;;;5029694;28;20056;-62
2023/05/23 03:08:41;;;;;;;44.80;18.00;;;;;;;;;;5029675;28;20087;-62
2023/05/23 03:11:07;;;;;;;43.37;17.83;;;;;;;;;;5029674;28;20124;-62
2023/05/23 03:13:34;;;;;;;56.30;18.97;;;;;;;;;;5029268;28;20476;-62
2023/05/23 03:16:00;;;;;;;41.77;17.37;;;;;;;;;;5045035;28;20045;-63
2023/05/23 03:18:26;;;;;;;35.60;15.03;;;;;;;;;;5049398;28;20049;-62
2023/05/23 03:20:52;;;;;;;41.57;15.80;;;;;;;;;;5049231;28;20053;-62
2023/05/23 03:23:18;;;;;;;45.77;16.10;;;;;;;;;;5049312;28;20045;-62
2023/05/23 03:25:44;;;;;;;35.27;15.43;;;;;;;;;;5038247;28;20478;-62
2023/05/23 03:28:14;;;;;;;39.87;15.47;;;;;;;;;;5028627;28;20053;-63
2023/05/23 03:30:40;;;;;;;39.77;14.90;;;;;;;;;;5029385;28;20440;-62
2023/05/23 03:33:06;;;;;;;38.83;14.80;;;;;;;;;;5029378;28;20049;-62
2023/05/23 03:35:32;;;;;;;35.13;14.77;;;;;;;;;;5029306;28;20168;-64
2023/05/23 03:37:58;;;;;;;36.37;13.33;;;;;;;;;;5035275;28;20049;-63
2023/05/23 03:40:24;;;;;;;33.87;14.17;;;;;;;;;;5044436;28;20504;-62
2023/05/23 03:43:02;;;;;;;35.90;13.83;;;;;;;;;;5032001;28;20515;-63
2023/05/23 03:45:28;;;;;;;30.00;13.00;;;;;;;;;;5028826;28;20046;-63
2023/05/23 03:47:54;;;;;;;31.93;13.73;;;;;;;;;;5028525;28;20041;-63
2023/05/23 03:50:20;;;;;;;33.70;14.40;;;;;;;;;;5028756;28;20065;-63
2023/05/23 03:52:46;;;;;;;35.80;13.33;;;;;;;;;;5029167;28;20053;-63
2023/05/23 03:55:12;;;;;;;36.37;13.13;;;;;;;;;;5028529;28;20057;-63
2023/05/23 03:57:39;;;;;;;27.43;12.27;;;;;;;;;;5028551;28;20404;-63
2023/05/23 04:00:05;;;;;;;31.60;13.47;;;;;;;;;;5028964;28;20098;-64
2023/05/23 04:02:31;;;;;;;31.53;13.40;;;;;;;;;;5028787;28;20438;-63
2023/05/23 04:04:57;;;;;;;37.93;12.77;;;;;;;;;;5027873;28;20067;-62
2023/05/23 04:07:25;;;;;;;35.97;12.83;;;;;;;;;;5028531;28;20064;-63
2023/05/23 04:09:51;;;;;;;31.70;12.67;;;;;;;;;;5028398;28;20065;-62
2023/05/23 04:12:18;;;;;;;32.67;13.67;;;;;;;;;;5028461;28;20045;-63
2023/05/23 04:14:46;;;;;;;35.27;13.27;;;;;;;;;;5028373;28;20059;-63
2023/05/23 04:17:13;;;;;;;35.07;11.17;;;;;;;;;;5028268;28;20049;-63
2023/05/23 04:19:39;;;;;;;31.63;11.83;;;;;;;;;;5028197;28;20463;-63
2023/05/23 04:22:05;;;;;;;35.93;11.63;;;;;;;;;;5026808;28;20494;-63
2023/05/23 04:24:31;;;;;;;41.73;11.90;;;;;;;;;;5030303;28;20068;-63
2023/05/23 04:26:58;;;;;;;31.57;11.03;;;;;;;;;;5029359;28;20454;-63
2023/05/23 04:29:25;;;;;;;28.60;10.13;;;;;;;;;;5028037;28;20056;-63
2023/05/23 04:31:51;;;;;;;25.90;10.07;;;;;;;;;;5028271;28;20156;-63
2023/05/23 04:34:17;;;;;;;32.77;9.87;;;;;;;;;;5027324;28;20049;-63
2023/05/23 04:36:43;;;;;;;28.90;8.60;;;;;;;;;;5027237;28;20459;-63
2023/05/23 04:39:09;;;;;;;27.33;8.93;;;;;;;;;;5027731;28;20033;-63
2023/05/23 04:41:35;;;;;;;28.40;9.20;;;;;;;;;;5027234;28;20061;-63
2023/05/23 04:44:02;;;;;;;23.30;8.37;;;;;;;;;;5027665;28;20056;-63
2023/05/23 04:46:28;;;;;;;19.60;8.13;;;;;;;;;;5027630;28;20045;-63
2023/05/23 04:48:55;;;;;;;30.47;8.60;;;;;;;;;;5028116;28;20100;-63
2023/05/23 04:51:21;;;;;;;22.03;7.87;;;;;;;;;;5028043;28;20061;-63
2023/05/23 04:53:47;;;;;;;21.17;8.43;;;;;;;;;;5027640;28;20053;-64
2023/05/23 04:56:16;;;;;;;25.97;7.97;;;;;;;;;;5027650;28;20037;-63
2023/05/23 04:58:43;;;;;;;27.60;9.97;;;;;;;;;;5028035;28;20419;-63
2023/05/23 05:01:10;;;;;;;22.53;9.07;;;;;;;;;;5028070;28;20046;-63
2023/05/23 05:03:36;;;;;;;23.50;9.57;;;;;;;;;;5037958;28;20124;-64
2023/05/23 05:06:03;;;;;;;20.83;9.80;;;;;;;;;;5048255;28;20090;-63
2023/05/23 05:08:30;;;;;;;19.33;9.50;;;;;;;;;;5047231;28;20052;-63
2023/05/23 05:10:56;;;;;;;30.30;10.93;;;;;;;;;;5047848;28;20410;-63
2023/05/23 05:13:22;;;;;;;19.80;10.17;;;;;;;;;;5047600;28;20048;-63
2023/05/23 05:15:48;;;;;;;22.67;9.50;;;;;;;;;;5047767;28;20066;-63
2023/05/23 05:18:15;;;;;;;24.17;10.77;;;;;;;;;;5047833;28;20056;-63
2023/05/23 05:20:41;;;;;;;26.93;9.63;;;;;;;;;;5034868;28;20106;-63
2023/05/23 05:23:08;;;;;;;25.87;9.37;;;;;;;;;;5027181;28;20050;-63
2023/05/23 05:25:37;;;;;;;26.47;10.70;;;;;;;;;;5027793;28;20080;-63
2023/05/23 05:28:04;;;;;;;31.17;9.60;;;;;;;;;;5029503;28;20041;-63
2023/05/23 05:30:34;;;;;;;32.67;10.33;;;;;;;;;;5039639;28;20076;-63
2023/05/23 05:33:02;;;;;;;32.07;9.10;;;;;;;;;;5052760;28;20445;-63
2023/05/23 05:35:31;;;;;;;28.33;9.90;;;;;;;;;;5038858;28;20045;-63
2023/05/23 05:37:57;;;;;;;26.90;9.23;;;;;;;;;;5031380;28;20526;-63
2023/05/23 05:40:23;;;;;;;26.80;7.90;;;;;;;;;;5031170;28;20052;-63
2023/05/23 05:42:49;;;;;;;25.43;8.97;;;;;;;;;;5032052;28;20312;-63
2023/05/23 05:45:15;;;;;;;23.37;7.90;;;;;;;;;;5037748;28;20047;-63
2023/05/23 05:47:42;;;;;;;23.87;8.70;;;;;;;;;;5051357;28;20056;-63
2023/05/23 05:50:09;;;;;;;21.30;7.50;;;;;;;;;;5038714;28;20047;-63
2023/05/23 05:52:38;;;;;;;24.47;7.87;;;;;;;;;;5046729;28;20049;-63
2023/05/23 05:55:05;;;;;;;20.40;8.20;;;;;;;;;;5050819;28;20178;-64
2023/05/23 05:57:32;;;;;;;21.43;8.00;;;;;;;;;;5050423;28;20103;-63
2023/05/23 05:59:58;;;;;;;17.60;7.87;;;;;;;;;;5050866;28;20057;-64
2023/05/23 06:02:25;;;;;;;19.63;7.37;;;;;;;;;;5050932;28;20059;-63
2023/05/23 06:04:51;;;;;;;19.13;6.73;;;;;;;;;;5050906;28;20088;-63
2023/05/23 06:07:17;;;;;;;18.77;6.40;;;;;;;;;;5050578;28;20053;-63
2023/05/23 06:09:44;;;;;;;21.40;7.47;;;;;;;;;;5050620;28;20048;-63
2023/05/23 06:12:10;;;;;;;19.17;7.23;;;;;;;;;;5049873;28;20044;-63
2023/05/23 06:14:36;;;;;;;15.87;6.17;;;;;;;;;;5050643;28;20132;-63
2023/05/23 06:17:02;;;;;;;15.17;6.17;;;;;;;;;;5048864;28;20037;-64
2023/05/23 06:19:29;;;;;;;16.80;6.63;;;;;;;;;;5050163;28;20144;-63
2023/05/23 06:21:55;;;;;;;15.33;5.83;;;;;;;;;;5049833;28;20495;-63
2023/05/23 06:24:21;;;;;;;14.83;6.03;;;;;;;;;;5049816;28;20391;-64
2023/05/23 06:26:47;;;;;;;21.07;6.20;;;;;;;;;;5050048;28;20052;-63
2023/05/23 06:29:13;;;;;;;15.37;6.53;;;;;;;;;;5049552;28;20052;-63
2023/05/23 06:31:39;;;;;;;16.13;6.17;;;;;;;;;;5050127;28;20085;-63
2023/05/23 06:34:05;;;;;;;14.40;6.30;;;;;;;;;;5049573;28;20511;-64
2023/05/23 06:36:31;;;;;;;21.37;6.93;;;;;;;;;;5049663;28;20487;-63
2023/05/23 06:38:57;;;;;;;16.83;6.20;;;;;;;;;;5049443;28;20135;-63
2023/05/23 06:41:23;;;;;;;13.23;5.77;;;;;;;;;;5049928;28;20045;-64
2023/05/23 06:43:49;;;;;;;14.80;5.97;;;;;;;;;;5049293;28;20110;-63
2023/05/23 06:46:15;;;;;;;18.97;6.53;;;;;;;;;;5049414;28;20045;-63
2023/05/23 06:48:41;;;;;;;17.17;5.57;;;;;;;;;;5048282;28;20049;-63
2023/05/23 06:51:07;;;;;;;14.87;5.90;;;;;;;;;;5049705;28;20557;-63
2023/05/23 06:53:33;;;;;;;17.93;4.87;;;;;;;;;;5049181;28;20064;-64
2023/05/23 06:56:00;;;;;;;11.07;4.60;;;;;;;;;;5049604;28;20090;-63
2023/05/23 06:58:26;;;;;;;15.17;4.23;;;;;;;;;;5035923;28;20042;-63
2023/05/23 07:00:52;;;;;;;16.57;4.20;;;;;;;;;;5050010;28;20057;-63
2023/05/23 07:03:18;;;;;;;14.97;4.83;;;;;;;;;;5040639;28;20506;-64
2023/05/23 07:05:44;;;;;;;14.70;4.57;;;;;;;;;;5029795;28;20407;-63
2023/05/23 07:08:10;;;;;;;13.07;3.80;;;;;;;;;;5029114;28;20052;-64
2023/05/23 07:10:37;;;;;;;13.63;4.03;;;;;;;;;;5028066;28;20045;-64
2023/05/23 07:13:03;;;;;;;17.30;5.80;;;;;;;;;;5030614;28;20476;-64
2023/05/23 07:15:30;;;;;;;16.30;4.33;;;;;;;;;;5049128;28;20099;-64
2023/05/23 07:17:56;;;;;;;16.13;4.87;;;;;;;;;;5049067;28;20049;-63
2023/05/23 07:20:22;;;;;;;18.80;4.87;;;;;;;;;;5049007;28;20091;-65
2023/05/23 07:22:50;;;;;;;10.97;3.33;;;;;;;;;;5045389;28;20514;-64
2023/05/23 07:25:16;;;;;;;13.80;3.10;;;;;;;;;;5038826;28;20507;-65
2023/05/23 07:27:42;;;;;;;11.63;3.10;;;;;;;;;;5046758;28;20511;-64
2023/05/23 07:30:08;;;;;;;20.47;4.77;;;;;;;;;;5046310;28;20045;-64
2023/05/23 07:32:35;;;;;;;16.57;4.40;;;;;;;;;;5039915;28;20476;-64
2023/05/23 07:35:01;;;;;;;15.73;3.83;;;;;;;;;;5040678;28;20044;-62
2023/05/23 07:37:27;;;;;;;17.43;3.47;;;;;;;;;;5047868;28;20045;-62
2023/05/23 07:39:53;;;;;;;17.83;5.00;;;;;;;;;;5047020;28;20529;-65
2023/05/23 07:42:19;;;;;;;19.97;4.63;;;;;;;;;;5043718;28;20570;-62
2023/05/23 07:44:45;;;;;;;21.43;4.80;;;;;;;;;;5046278;28;20507;-63
2023/05/23 07:47:11;;;;;;;19.00;3.50;;;;;;;;;;5048155;28;20052;-63
2023/05/23 07:49:37;;;;;;;16.53;4.00;;;;;;;;;;5048778;28;20040;-63
2023/05/23 07:52:03;;;;;;;21.10;4.63;;;;;;;;;;5048127;28;20044;-63
2023/05/23 07:54:29;;;;;;;11.37;4.00;;;;;;;;;;5047613;28;20041;-63
2023/05/23 07:56:56;;;;;;;14.27;4.10;;;;;;;;;;5048572;28;20336;-63
2023/05/23 07:59:22;;;;;;;16.50;3.87;;;;;;;;;;5047848;28;20052;-63
2023/05/23 08:01:49;;;;;;;19.37;3.90;;;;;;;;;;5046596;28;20507;-63
2023/05/23 08:04:15;;;;;;;18.17;4.47;;;;;;;;;;5043253;28;20057;-63
2023/05/23 08:06:41;;;;;;;15.40;4.53;;;;;;;;;;5047657;28;20041;-62
2023/05/23 08:09:08;;;;;;;14.57;3.40;;;;;;;;;;5044927;28;20069;-63
2023/05/23 08:11:34;;;;;;;22.57;4.17;;;;;;;;;;5047581;28;20049;-62
2023/05/23 08:14:00;;;;;;;17.73;4.20;;;;;;;;;;5047530;28;20044;-62
2023/05/23 08:16:26;;;;;;;16.20;3.70;;;;;;;;;;5043355;28;20052;-63
2023/05/23 08:18:53;;;;;;;15.20;3.80;;;;;;;;;;5033575;28;20037;-64
2023/05/23 08:21:19;;;;;;;15.40;4.87;;;;;;;;;;5047407;28;20079;-64
2023/05/23 08:23:45;;;;;;;21.17;4.73;;;;;;;;;;5048226;28;20052;-64
2023/05/23 08:26:11;;;;;;;19.93;4.13;;;;;;;;;;5046350;28;20044;-64
2023/05/23 08:28:37;;;;;;;12.90;3.80;;;;;;;;;;5046904;28;20407;-64
2023/05/23 08:31:03;;;;;;;20.63;4.77;;;;;;;;;;5039215;28;20041;-64
2023/05/23 08:33:29;;;;;;;14.13;4.03;;;;;;;;;;5028077;28;20535;-64
2023/05/23 08:35:55;;;;;;;14.30;3.03;;;;;;;;;;5046388;28;20049;-64
2023/05/23 08:38:21;;;;;;;14.23;4.10;;;;;;;;;;5034175;28;20052;-64
2023/05/23 08:40:51;;;;;;;21.30;4.10;;;;;;;;;;5039704;28;20045;-64
2023/05/23 08:43:18;;;;;;;17.50;4.73;;;;;;;;;;5038060;28;20530;-64
2023/05/23 08:45:44;;;;;;;16.10;3.77;;;;;;;;;;5047920;28;20052;-64
2023/05/23 08:48:12;;;;;;;15.70;4.20;;;;;;;;;;5031819;28;20121;-64
2023/05/23 08:50:39;;;;;;;11.93;3.00;;;;;;;;;;5038517;28;20057;-63
2023/05/23 08:53:09;;;;;;;15.67;3.70;;;;;;;;;;5031325;28;20099;-64
2023/05/23 08:55:37;;;;;;;17.30;3.90;;;;;;;;;;5028574;28;20132;-64
2023/05/23 08:58:03;;;;;;;17.63;3.73;;;;;;;;;;5042502;28;20515;-64
2023/05/23 09:00:29;;;;;;;16.47;3.97;;;;;;;;;;5028083;28;20052;-64
2023/05/23 09:02:56;;;;;;;20.07;4.30;;;;;;;;;;5030781;28;20045;-64
2023/05/23 09:05:22;;;;;;;13.87;3.30;;;;;;;;;;5045763;28;20052;-64
2023/05/23 09:07:50;;;;;;;14.37;3.40;;;;;;;;;;5050620;28;20492;-63
2023/05/23 09:10:16;;;;;;;22.07;5.90;;;;;;;;;;5048004;28;20471;-64
2023/05/23 09:12:42;;;;;;;17.93;4.13;;;;;;;;;;5031727;28;20045;-63
2023/05/23 09:15:09;;;;;;;15.40;4.57;;;;;;;;;;5031295;28;20045;-63
2023/05/23 09:17:39;;;;;;;14.87;3.53;;;;;;;;;;5047380;28;20052;-63
2023/05/23 09:20:12;;;;;;;17.70;4.63;;;;;;;;;;5050726;28;20402;-63
2023/05/23 09:22:38;;;;;;;12.47;3.53;;;;;;;;;;5030833;28;20535;-63
2023/05/23 09:25:05;;;;;;;14.27;3.67;;;;;;;;;;5043614;28;20057;-63
2023/05/23 09:27:31;;;;;;;16.37;3.83;;;;;;;;;;5050921;28;20079;-64
2023/05/23 09:29:57;;;;;;;12.63;5.00;;;;;;;;;;5049154;28;20553;-64
2023/05/23 09:32:23;;;;;;;12.17;3.53;;;;;;;;;;5033476;28;20053;-64
2023/05/23 09:34:56;;;;;;;12.13;3.83;;;;;;;;;;5030341;28;20085;-63
2023/05/23 09:37:24;;;;;;;16.23;3.60;;;;;;;;;;5040209;28;20341;-63
2023/05/23 09:39:52;;;;;;;12.97;3.43;;;;;;;;;;5050411;28;20079;-64
2023/05/23 09:42:20;;;;;;;15.20;3.90;;;;;;;;;;5050995;28;20057;-64
2023/05/23 09:44:46;;;;;;;13.47;3.40;;;;;;;;;;5032224;28;20049;-64
2023/05/23 09:47:12;;;;;;;12.57;3.53;;;;;;;;;;5048489;28;20048;-64
2023/05/23 09:49:43;;;;;;;15.77;3.07;;;;;;;;;;5050556;28;20470;-64
2023/05/23 09:52:10;;;;;;;14.70;3.77;;;;;;;;;;5050280;28;20132;-64
2023/05/23 09:54:36;;;;;;;12.57;3.77;;;;;;;;;;5048500;28;20615;-64
2023/05/23 09:57:04;;;;;;;11.53;3.83;;;;;;;;;;5048546;28;20091;-64
2023/05/23 09:59:31;;;;;;;14.67;3.97;;;;;;;;;;5049978;28;20053;-64
2023/05/23 10:02:00;;;;;;;10.90;4.07;;;;;;;;;;5050619;28;20041;-64
2023/05/23 10:04:27;;;;;;;13.20;3.67;;;;;;;;;;5049039;28;20103;-63
2023/05/23 10:06:58;;;;;;;10.80;3.40;;;;;;;;;;5048027;28;20037;-64
2023/05/23 10:09:26;;;;;;;11.67;3.70;;;;;;;;;;5049680;28;20161;-64
2023/05/23 10:11:52;;;;;;;12.43;3.70;;;;;;;;;;5050405;28;20128;-64
2023/05/23 10:14:18;;;;;;;9.90;3.60;;;;;;;;;;5050101;28;20192;-64
2023/05/23 10:16:47;;;;;;;13.17;3.43;;;;;;;;;;5049866;28;20458;-64
2023/05/23 10:19:32;;;;;;;13.07;3.10;;;;;;;;;;5050230;28;20583;-63
2023/05/23 10:22:00;;;;;;;11.33;4.00;;;;;;;;;;5029111;28;20045;-63
2023/05/23 10:24:26;;;;;;;19.97;4.00;;;;;;;;;;5030369;28;20045;-63
2023/05/23 10:26:54;;;;;;;15.50;3.80;;;;;;;;;;5030353;28;20033;-63
2023/05/23 10:29:20;;;;;;;11.20;3.90;;;;;;;;;;5047061;28;20702;-63
2023/05/23 10:31:47;;;;;;;10.43;3.67;;;;;;;;;;5049453;28;20053;-63
2023/05/23 10:34:27;;;;;;;12.20;3.20;;;;;;;;;;5044466;28;20041;-63
2023/05/23 10:37:05;;;;;;;11.07;3.20;;;;;;;;;;5048369;28;20492;-63
2023/05/23 10:39:35;;;;;;;9.80;2.90;;;;;;;;;;5049501;28;20048;-62
2023/05/23 10:42:10;;;;;;;11.70;3.10;;;;;;;;;;5049905;28;20078;-63
2023/05/23 10:44:36;;;;;;;9.33;2.50;;;;;;;;;;5049222;28;20041;-62
2023/05/23 10:47:03;;;;;;;10.67;2.90;;;;;;;;;;5047772;28;20510;-63
2023/05/23 10:49:42;;;;;;;11.70;2.97;;;;;;;;;;5046956;28;20041;-64
2023/05/23 10:52:09;;;;;;;12.37;4.50;;;;;;;;;;5049357;28;20049;-62
2023/05/23 10:54:36;;;;;;;13.83;3.07;;;;;;;;;;5049461;28;20041;-63
2023/05/23 10:57:03;;;;;;;13.17;3.80;;;;;;;;;;5043630;28;20045;-63
2023/05/23 10:59:29;;;;;;;11.97;3.70;;;;;;;;;;5045469;28;20040;-63
2023/05/23 11:01:55;;;;;;;10.38;3.22;;;;;;;;;;5044523;28;20072;-63
2023/05/23 11:04:25;;;;;;;14.25;3.45;;;;;;;;;;5049103;28;20131;-62
2023/05/23 11:06:53;;;;;;;15.63;3.78;;;;;;;;;;5051983;28;20146;-62
2023/05/23 11:09:20;;;;;;;10.40;2.83;;;;;;;;;;5041635;28;20045;-62
2023/05/23 11:11:58;;;;;;;11.45;3.67;;;;;;;;;;5029447;28;20045;-62
2023/05/23 11:14:31;;;;;;;11.90;3.53;;;;;;;;;;5033391;28;20077;-63
2023/05/23 11:16:57;;;;;;;9.43;3.10;;;;;;;;;;5048702;28;20079;-63
2023/05/23 11:19:24;;;;;;;11.50;3.05;;;;;;;;;;5046976;28;20084;-63
2023/05/23 11:22:01;;;;;;;9.55;2.90;;;;;;;;;;5049428;28;20531;-64
2023/05/23 11:24:45;;;;;;;18.13;3.42;;;;;;;;;;5038312;28;20080;-63
2023/05/23 11:27:12;;;;;;;12.70;3.50;;;;;;;;;;5044686;28;20521;-63
2023/05/23 11:29:38;;;;;;;9.95;3.00;;;;;;;;;;5048368;28;20824;-63
2023/05/23 11:32:11;;;;;;;15.85;3.70;;;;;;;;;;5048583;28;20128;-63
2023/05/23 11:34:38;;;;;;;8.68;2.92;;;;;;;;;;5049156;28;20524;-63
2023/05/23 11:37:04;;;;;;;9.20;3.05;;;;;;;;;;5048142;28;20117;-63
2023/05/23 11:39:30;;;;;;;12.57;3.65;;;;;;;;;;5037618;28;20049;-63
2023/05/23 11:42:03;;;;;;;11.30;3.28;;;;;;;;;;5034540;28;20048;-63
2023/05/23 11:44:29;;;;;;;10.23;2.83;;;;;;;;;;5029649;28;20050;-63
2023/05/23 11:47:07;;;;;;;14.02;3.42;;;;;;;;;;5048856;28;20198;-64
2023/05/23 11:49:38;;;;;;;10.90;3.33;;;;;;;;;;5033236;28;20512;-63
2023/05/23 11:52:05;;;;;;;11.25;3.22;;;;;;;;;;5049121;28;20094;-63
2023/05/23 11:54:31;;;;;;;9.43;3.25;;;;;;;;;;5048051;28;20155;-63
2023/05/23 11:56:57;;;;;;;11.85;2.90;;;;;;;;;;5045523;28;20523;-63
2023/05/23 11:59:25;;;;;;;6.85;2.60;;;;;;;;;;5047359;28;20569;-63
2023/05/23 12:01:51;;;;;;;13.27;3.35;;;;;;;;;;5048245;28;20048;-63
2023/05/23 12:04:17;;;;;;;11.00;3.17;;;;;;;;;;5046882;28;20114;-63
2023/05/23 12:06:47;;;;;;;15.73;3.63;;;;;;;;;;5048916;28;20080;-63
2023/05/23 12:09:13;;;;;;;10.98;3.50;;;;;;;;;;5047395;28;20060;-63
2023/05/23 12:11:40;;;;;;;14.02;3.78;;;;;;;;;;5048282;28;20064;-63
2023/05/23 12:14:07;;;;;;;16.20;3.70;;;;;;;;;;5040058;28;20493;-63
2023/05/23 12:16:33;;;;;;;9.23;3.03;;;;;;;;;;5031706;28;20536;-63
2023/05/23 12:19:00;;;;;;;10.10;3.10;;;;;;;;;;5046947;28;20048;-63
2023/05/23 12:21:26;;;;;;;11.88;3.00;;;;;;;;;;5047627;28;20052;-63
2023/05/23 12:23:52;;;;;;;10.27;2.80;;;;;;;;;;5046619;28;20064;-63
2023/05/23 12:26:19;;;;;;;9.02;2.55;;;;;;;;;;5047560;28;20049;-63
2023/05/23 12:28:45;;;;;;;10.80;2.90;;;;;;;;;;5039557;28;20049;-63
2023/05/23 12:31:31;;;;;;;10.82;2.70;;;;;;;;;;5039562;28;20049;-63
2023/05/23 12:33:57;;;;;;;11.13;3.15;;;;;;;;;;5027844;28;20511;-63
2023/05/23 12:36:25;;;;;;;13.43;3.65;;;;;;;;;;5028304;28;20050;-63
2023/05/23 12:38:51;;;;;;;11.80;3.10;;;;;;;;;;5033793;28;20618;-63
2023/05/23 12:41:18;;;;;;;8.98;2.78;;;;;;;;;;5048237;28;20060;-63
2023/05/23 12:43:51;;;;;;;7.22;2.95;;;;;;;;;;5046768;28;20388;-62
2023/05/23 12:46:17;;;;;;;;;;;;;;;;;;5048899;28;20048;-63
2023/05/23 12:48:43;;;;;;;10.68;3.03;;;;;;;;;;5045703;28;19944;-63
2023/05/23 12:51:09;;;;;;;9.35;2.67;;;;;;;;;;5038604;28;20491;-62
2023/05/23 12:53:35;;;;;;;9.30;2.50;;;;;;;;;;5047664;28;20478;-63
2023/05/23 12:56:01;;;;;;;9.02;2.30;;;;;;;;;;5048674;28;20048;-63
2023/05/23 12:58:28;;;;;;;10.52;2.40;;;;;;;;;;5046761;28;20773;-63
2023/05/23 13:00:54;;;;;;;7.97;2.45;;;;;;;;;;5047414;28;20052;-63
2023/05/23 13:03:20;;;;;;;10.50;3.15;;;;;;;;;;5047268;28;20388;-63
2023/05/23 13:05:46;;;;;;;11.15;2.92;;;;;;;;;;5030111;28;20034;-63
2023/05/23 13:08:12;;;;;;;9.00;2.30;;;;;;;;;;5028092;28;20053;-63
2023/05/23 13:10:39;;;;;;;9.30;2.75;;;;;;;;;;5026707;28;20049;-63
2023/05/23 13:13:05;;;;;;;10.57;3.40;;;;;;;;;;5026983;28;20085;-63
2023/05/23 13:15:31;;;;;;;8.88;2.63;;;;;;;;;;5027758;28;20049;-63
2023/05/23 13:17:57;;;;;;;9.15;2.67;;;;;;;;;;5027757;28;20042;-63
2023/05/23 13:20:23;;;;;;;7.35;2.50;;;;;;;;;;5040293;28;20584;-62
2023/05/23 13:22:49;;;;;;;13.35;2.40;;;;;;;;;;5046646;28;20115;-63
2023/05/23 13:25:15;;;;;;;7.07;2.35;;;;;;;;;;5047461;28;20511;-63
2023/05/23 13:27:41;;;;;;;5.50;2.30;;;;;;;;;;5036831;28;20139;-63
2023/05/23 13:30:08;;;;;;;5.63;2.10;;;;;;;;;;5040224;28;20045;-63
2023/05/23 13:32:34;;;;;;;6.47;2.72;;;;;;;;;;5041912;28;20080;-63
2023/05/23 13:35:00;;;;;;;8.70;2.65;;;;;;;;;;5029185;28;20055;-63
2023/05/23 13:37:27;;;;;;;8.65;2.63;;;;;;;;;;5046674;28;20487;-63
2023/05/23 13:39:53;;;;;;;9.23;2.72;;;;;;;;;;5027749;28;20103;-63
2023/05/23 13:42:19;;;;;;;9.65;3.08;;;;;;;;;;5037866;28;20503;-63
2023/05/23 13:44:45;;;;;;;12.30;3.10;;;;;;;;;;5041100;28;20052;-63
2023/05/23 13:47:12;;;;;;;7.68;2.22;;;;;;;;;;5035790;28;20041;-63
2023/05/23 13:49:39;;;;;;;10.25;3.08;;;;;;;;;;5032095;28;20132;-63
2023/05/23 13:52:05;;;;;;;10.45;2.65;;;;;;;;;;5042754;28;20056;-63
2023/05/23 13:54:31;;;;;;;12.30;2.60;;;;;;;;;;5050079;28;20037;-63
2023/05/23 13:56:58;;;;;;;12.18;2.90;;;;;;;;;;5059018;28;20049;-63
2023/05/23 13:59:27;;;;;;;9.15;3.08;;;;;;;;;;5041822;28;20044;-63
2023/05/23 14:01:53;;;;;;;8.95;3.22;;;;;;;;;;5050844;28;20072;-63
2023/05/23 14:04:20;;;;;;;9.13;2.40;;;;;;;;;;5033661;28;20467;-63
2023/05/23 14:06:46;;;;;;;7.90;2.30;;;;;;;;;;5042482;28;20082;-63
2023/05/23 14:09:12;;;;;;;10.50;2.70;;;;;;;;;;5044482;28;20049;-63
2023/05/23 14:11:38;;;;;;;7.30;2.50;;;;;;;;;;5050610;28;20477;-63
2023/05/23 14:14:05;;;;;;;8.57;2.65;;;;;;;;;;5044826;28;20045;-63
2023/05/23 14:16:31;;;;;;;8.88;2.22;;;;;;;;;;5029043;28;20049;-63
2023/05/23 14:18:57;;;;;;;9.00;2.35;;;;;;;;;;5028521;28;20041;-63
2023/05/23 14:21:23;;;;;;;9.65;2.72;;;;;;;;;;5028421;28;20436;-63
2023/05/23 14:23:49;;;;;;;12.73;2.92;;;;;;;;;;5029156;28;20092;-63
2023/05/23 14:26:15;;;;;;;9.13;3.00;;;;;;;;;;5040674;28;20567;-63
2023/05/23 14:28:41;;;;;;;11.55;3.10;;;;;;;;;;5049779;28;20088;-63